sensor_id;sensor_type;location;lat;lon;timestamp;P1;durP1;ratioP1;P2;durP2;ratioP2
56075;SDS011;41951;49.022;12.066;2023-02-11T00:01:34;54.92;;;25.45;;
56075;SDS011;41951;49.022;12.066;2023-02-11T00:04:01;51.35;;;25.10;;
56075;SDS011;41951;49.022;12.066;2023-02-11T00:06:28;52.72;;;26.25;;
56075;SDS011;41951;49.022;12.066;2023-02-11T00:08:54;49.70;;;24.10;;
56075;SDS011;41951;49.022;12.066;2023-02-11T00:11:21;52.75;;;25.27;;
56075;SDS011;41951;49.022;12.066;2023-02-11T00:13:49;47.63;;;24.40;;
56075;SDS011;41951;49.022;12.066;2023-02-11T00:16:16;53.92;;;25.50;;
56075;SDS011;41951;49.022;12.066;2023-02-11T00:18:43;51.85;;;26.63;;
56075;SDS011;41951;49.022;12.066;2023-02-11T00:21:10;48.47;;;24.20;;
56075;SDS011;41951;49.022;12.066;2023-02-11T00:23:41;53.83;;;25.08;;
56075;SDS011;41951;49.022;12.066;2023-02-11T00:26:26;50.83;;;25.65;;
56075;SDS011;41951;49.022;12.066;2023-02-11T00:28:54;49.58;;;24.60;;
56075;SDS011;41951;49.022;12.066;2023-02-11T00:31:21;52.40;;;26.20;;
56075;SDS011;41951;49.022;12.066;2023-02-11T00:33:47;46.65;;;24.30;;
56075;SDS011;41951;49.022;12.066;2023-02-11T00:36:15;52.75;;;24.88;;
56075;SDS011;41951;49.022;12.066;2023-02-11T00:38:45;49.67;;;24.88;;
56075;SDS011;41951;49.022;12.066;2023-02-11T00:41:11;54.95;;;27.17;;
56075;SDS011;41951;49.022;12.066;2023-02-11T00:43:38;53.72;;;26.10;;
56075;SDS011;41951;49.022;12.066;2023-02-11T00:46:04;49.83;;;24.45;;
56075;SDS011;41951;49.022;12.066;2023-02-11T00:48:31;51.38;;;25.45;;
56075;SDS011;41951;49.022;12.066;2023-02-11T00:50:57;48.90;;;24.85;;
56075;SDS011;41951;49.022;12.066;2023-02-11T00:53:22;49.00;;;24.83;;
56075;SDS011;41951;49.022;12.066;2023-02-11T00:55:48;51.90;;;25.13;;
56075;SDS011;41951;49.022;12.066;2023-02-11T00:58:13;55.25;;;24.88;;
56075;SDS011;41951;49.022;12.066;2023-02-11T01:00:39;54.03;;;24.77;;
56075;SDS011;41951;49.022;12.066;2023-02-11T01:03:05;52.63;;;24.60;;
56075;SDS011;41951;49.022;12.066;2023-02-11T01:05:30;53.30;;;26.27;;
56075;SDS011;41951;49.022;12.066;2023-02-11T01:07:56;47.70;;;24.55;;
56075;SDS011;41951;49.022;12.066;2023-02-11T01:10:25;49.85;;;23.15;;
56075;SDS011;41951;49.022;12.066;2023-02-11T01:12:51;46.17;;;22.98;;
56075;SDS011;41951;49.022;12.066;2023-02-11T01:15:17;47.78;;;25.02;;
56075;SDS011;41951;49.022;12.066;2023-02-11T01:17:47;51.25;;;25.10;;
56075;SDS011;41951;49.022;12.066;2023-02-11T01:20:14;47.50;;;24.35;;
56075;SDS011;41951;49.022;12.066;2023-02-11T01:22:42;49.70;;;25.08;;
56075;SDS011;41951;49.022;12.066;2023-02-11T01:25:11;47.03;;;23.27;;
56075;SDS011;41951;49.022;12.066;2023-02-11T01:27:37;49.63;;;26.10;;
56075;SDS011;41951;49.022;12.066;2023-02-11T01:30:03;43.95;;;24.02;;
56075;SDS011;41951;49.022;12.066;2023-02-11T01:32:30;47.90;;;22.42;;
56075;SDS011;41951;49.022;12.066;2023-02-11T01:34:56;48.58;;;24.63;;
56075;SDS011;41951;49.022;12.066;2023-02-11T01:37:22;53.33;;;24.95;;
56075;SDS011;41951;49.022;12.066;2023-02-11T01:39:47;50.03;;;25.10;;
56075;SDS011;41951;49.022;12.066;2023-02-11T01:42:15;55.95;;;27.20;;
56075;SDS011;41951;49.022;12.066;2023-02-11T01:44:42;51.72;;;23.55;;
56075;SDS011;41951;49.022;12.066;2023-02-11T01:47:08;54.55;;;26.25;;
56075;SDS011;41951;49.022;12.066;2023-02-11T01:49:37;56.70;;;27.85;;
56075;SDS011;41951;49.022;12.066;2023-02-11T01:54:39;56.15;;;26.13;;
56075;SDS011;41951;49.022;12.066;2023-02-11T01:57:27;58.95;;;26.08;;
56075;SDS011;41951;49.022;12.066;2023-02-11T02:03:08;53.70;;;27.05;;
56075;SDS011;41951;49.022;12.066;2023-02-11T02:05:19;55.97;;;28.38;;
56075;SDS011;41951;49.022;12.066;2023-02-11T02:10:27;58.78;;;29.55;;
56075;SDS011;41951;49.022;12.066;2023-02-11T02:12:54;57.70;;;28.90;;
56075;SDS011;41951;49.022;12.066;2023-02-11T02:15:21;55.80;;;27.45;;
56075;SDS011;41951;49.022;12.066;2023-02-11T02:26:26;65.70;;;28.70;;
56075;SDS011;41951;49.022;12.066;2023-02-11T02:37:50;67.47;;;29.38;;
56075;SDS011;41951;49.022;12.066;2023-02-11T02:40:24;63.40;;;30.65;;
56075;SDS011;41951;49.022;12.066;2023-02-11T02:43:10;60.67;;;28.85;;
56075;SDS011;41951;49.022;12.066;2023-02-11T02:45:37;61.78;;;29.38;;
56075;SDS011;41951;49.022;12.066;2023-02-11T02:48:03;64.13;;;31.55;;
56075;SDS011;41951;49.022;12.066;2023-02-11T02:50:32;65.13;;;31.25;;
56075;SDS011;41951;49.022;12.066;2023-02-11T02:53:05;58.22;;;29.90;;
56075;SDS011;41951;49.022;12.066;2023-02-11T02:55:50;64.55;;;31.33;;
56075;SDS011;41951;49.022;12.066;2023-02-11T03:01:06;71.88;;;32.85;;
56075;SDS011;41951;49.022;12.066;2023-02-11T03:03:58;59.65;;;29.08;;
56075;SDS011;41951;49.022;12.066;2023-02-11T03:06:32;59.60;;;30.60;;
56075;SDS011;41951;49.022;12.066;2023-02-11T03:09:05;61.55;;;29.90;;
56075;SDS011;41951;49.022;12.066;2023-02-11T03:11:37;62.38;;;31.75;;
56075;SDS011;41951;49.022;12.066;2023-02-11T03:14:05;67.93;;;31.02;;
56075;SDS011;41951;49.022;12.066;2023-02-11T03:16:34;62.45;;;30.73;;
56075;SDS011;41951;49.022;12.066;2023-02-11T03:19:22;57.67;;;30.73;;
56075;SDS011;41951;49.022;12.066;2023-02-11T03:21:53;64.85;;;31.38;;
56075;SDS011;41951;49.022;12.066;2023-02-11T03:24:20;69.90;;;32.78;;
56075;SDS011;41951;49.022;12.066;2023-02-11T03:26:52;65.35;;;30.75;;
56075;SDS011;41951;49.022;12.066;2023-02-11T03:32:16;62.78;;;31.63;;
56075;SDS011;41951;49.022;12.066;2023-02-11T03:34:51;62.25;;;31.00;;
56075;SDS011;41951;49.022;12.066;2023-02-11T03:37:29;66.32;;;31.65;;
56075;SDS011;41951;49.022;12.066;2023-02-11T03:42:35;65.82;;;32.05;;
56075;SDS011;41951;49.022;12.066;2023-02-11T03:45:08;65.90;;;31.20;;
56075;SDS011;41951;49.022;12.066;2023-02-11T03:47:38;62.83;;;32.65;;
56075;SDS011;41951;49.022;12.066;2023-02-11T03:50:09;61.38;;;30.73;;
56075;SDS011;41951;49.022;12.066;2023-02-11T03:52:38;65.60;;;32.05;;
56075;SDS011;41951;49.022;12.066;2023-02-11T03:55:06;68.18;;;31.50;;
56075;SDS011;41951;49.022;12.066;2023-02-11T03:57:36;63.85;;;31.15;;
56075;SDS011;41951;49.022;12.066;2023-02-11T04:00:02;63.40;;;31.75;;
56075;SDS011;41951;49.022;12.066;2023-02-11T04:02:30;66.35;;;31.52;;
56075;SDS011;41951;49.022;12.066;2023-02-11T04:04:58;64.78;;;31.77;;
56075;SDS011;41951;49.022;12.066;2023-02-11T04:07:24;59.00;;;29.65;;
56075;SDS011;41951;49.022;12.066;2023-02-11T04:09:50;62.92;;;29.75;;
56075;SDS011;41951;49.022;12.066;2023-02-11T04:12:16;65.22;;;31.50;;
56075;SDS011;41951;49.022;12.066;2023-02-11T04:14:42;57.33;;;28.75;;
56075;SDS011;41951;49.022;12.066;2023-02-11T04:17:08;66.03;;;30.15;;
56075;SDS011;41951;49.022;12.066;2023-02-11T04:19:34;62.80;;;29.65;;
56075;SDS011;41951;49.022;12.066;2023-02-11T04:21:59;59.65;;;30.08;;
56075;SDS011;41951;49.022;12.066;2023-02-11T04:24:25;61.50;;;30.45;;
56075;SDS011;41951;49.022;12.066;2023-02-11T04:26:51;63.65;;;30.35;;
56075;SDS011;41951;49.022;12.066;2023-02-11T04:29:17;61.05;;;29.70;;
56075;SDS011;41951;49.022;12.066;2023-02-11T04:31:43;58.67;;;28.63;;
56075;SDS011;41951;49.022;12.066;2023-02-11T04:34:09;58.55;;;29.60;;
56075;SDS011;41951;49.022;12.066;2023-02-11T04:36:34;60.80;;;29.80;;
56075;SDS011;41951;49.022;12.066;2023-02-11T04:39:00;59.05;;;30.08;;
56075;SDS011;41951;49.022;12.066;2023-02-11T04:41:25;56.45;;;28.35;;
56075;SDS011;41951;49.022;12.066;2023-02-11T04:43:51;62.30;;;31.80;;
56075;SDS011;41951;49.022;12.066;2023-02-11T04:46:16;59.88;;;29.08;;
56075;SDS011;41951;49.022;12.066;2023-02-11T04:48:42;56.30;;;28.27;;
56075;SDS011;41951;49.022;12.066;2023-02-11T04:51:08;55.72;;;29.15;;
56075;SDS011;41951;49.022;12.066;2023-02-11T04:53:33;62.65;;;30.42;;
56075;SDS011;41951;49.022;12.066;2023-02-11T04:55:59;62.00;;;29.48;;
56075;SDS011;41951;49.022;12.066;2023-02-11T04:58:24;58.05;;;29.27;;
56075;SDS011;41951;49.022;12.066;2023-02-11T05:00:50;55.63;;;26.75;;
56075;SDS011;41951;49.022;12.066;2023-02-11T05:03:16;63.17;;;30.63;;
56075;SDS011;41951;49.022;12.066;2023-02-11T05:05:41;55.20;;;28.88;;
56075;SDS011;41951;49.022;12.066;2023-02-11T05:08:08;56.60;;;30.05;;
56075;SDS011;41951;49.022;12.066;2023-02-11T05:10:35;59.17;;;29.60;;
56075;SDS011;41951;49.022;12.066;2023-02-11T05:13:00;57.47;;;28.27;;
56075;SDS011;41951;49.022;12.066;2023-02-11T05:15:26;60.80;;;30.30;;
56075;SDS011;41951;49.022;12.066;2023-02-11T05:17:52;66.53;;;29.95;;
56075;SDS011;41951;49.022;12.066;2023-02-11T05:20:18;58.70;;;29.13;;
56075;SDS011;41951;49.022;12.066;2023-02-11T05:22:43;62.63;;;30.98;;
56075;SDS011;41951;49.022;12.066;2023-02-11T05:25:09;62.25;;;29.50;;
56075;SDS011;41951;49.022;12.066;2023-02-11T05:27:35;61.22;;;29.30;;
56075;SDS011;41951;49.022;12.066;2023-02-11T05:30:00;61.08;;;29.65;;
56075;SDS011;41951;49.022;12.066;2023-02-11T05:32:26;59.38;;;30.13;;
56075;SDS011;41951;49.022;12.066;2023-02-11T05:34:52;64.75;;;30.90;;
56075;SDS011;41951;49.022;12.066;2023-02-11T05:37:18;60.80;;;30.02;;
56075;SDS011;41951;49.022;12.066;2023-02-11T05:39:43;60.55;;;30.35;;
56075;SDS011;41951;49.022;12.066;2023-02-11T05:42:09;64.22;;;30.50;;
56075;SDS011;41951;49.022;12.066;2023-02-11T05:44:34;57.20;;;28.05;;
56075;SDS011;41951;49.022;12.066;2023-02-11T05:47:00;55.78;;;28.15;;
56075;SDS011;41951;49.022;12.066;2023-02-11T05:49:25;59.67;;;29.75;;
56075;SDS011;41951;49.022;12.066;2023-02-11T05:51:51;61.97;;;28.27;;
56075;SDS011;41951;49.022;12.066;2023-02-11T05:54:17;59.25;;;28.42;;
56075;SDS011;41951;49.022;12.066;2023-02-11T05:56:42;57.75;;;28.75;;
56075;SDS011;41951;49.022;12.066;2023-02-11T05:59:08;64.82;;;31.38;;
56075;SDS011;41951;49.022;12.066;2023-02-11T06:01:36;61.40;;;29.15;;
56075;SDS011;41951;49.022;12.066;2023-02-11T06:04:01;56.40;;;28.95;;
56075;SDS011;41951;49.022;12.066;2023-02-11T06:06:27;68.68;;;30.25;;
56075;SDS011;41951;49.022;12.066;2023-02-11T06:08:53;62.90;;;29.88;;
56075;SDS011;41951;49.022;12.066;2023-02-11T06:11:18;54.97;;;28.27;;
56075;SDS011;41951;49.022;12.066;2023-02-11T06:13:44;56.17;;;30.58;;
56075;SDS011;41951;49.022;12.066;2023-02-11T06:16:09;59.97;;;29.40;;
56075;SDS011;41951;49.022;12.066;2023-02-11T06:18:35;59.17;;;29.17;;
56075;SDS011;41951;49.022;12.066;2023-02-11T06:21:05;59.67;;;29.08;;
56075;SDS011;41951;49.022;12.066;2023-02-11T06:26:00;71.13;;;31.80;;
56075;SDS011;41951;49.022;12.066;2023-02-11T06:28:27;58.45;;;28.02;;
56075;SDS011;41951;49.022;12.066;2023-02-11T06:30:52;54.47;;;28.45;;
56075;SDS011;41951;49.022;12.066;2023-02-11T06:33:18;62.08;;;29.80;;
56075;SDS011;41951;49.022;12.066;2023-02-11T06:35:43;60.83;;;29.90;;
56075;SDS011;41951;49.022;12.066;2023-02-11T06:38:09;56.40;;;28.25;;
56075;SDS011;41951;49.022;12.066;2023-02-11T06:40:34;56.25;;;28.60;;
56075;SDS011;41951;49.022;12.066;2023-02-11T06:43:00;62.75;;;27.80;;
56075;SDS011;41951;49.022;12.066;2023-02-11T06:45:25;62.17;;;30.17;;
56075;SDS011;41951;49.022;12.066;2023-02-11T06:47:51;55.50;;;28.73;;
56075;SDS011;41951;49.022;12.066;2023-02-11T06:50:17;55.95;;;28.75;;
56075;SDS011;41951;49.022;12.066;2023-02-11T06:52:42;63.08;;;29.17;;
56075;SDS011;41951;49.022;12.066;2023-02-11T06:55:08;69.00;;;29.77;;
56075;SDS011;41951;49.022;12.066;2023-02-11T06:57:35;58.20;;;28.67;;
56075;SDS011;41951;49.022;12.066;2023-02-11T07:00:00;57.53;;;28.13;;
56075;SDS011;41951;49.022;12.066;2023-02-11T07:02:26;56.78;;;28.33;;
56075;SDS011;41951;49.022;12.066;2023-02-11T07:04:52;61.58;;;28.27;;
56075;SDS011;41951;49.022;12.066;2023-02-11T07:07:17;54.03;;;27.20;;
56075;SDS011;41951;49.022;12.066;2023-02-11T07:09:43;53.13;;;27.35;;
56075;SDS011;41951;49.022;12.066;2023-02-11T07:12:09;54.70;;;28.42;;
56075;SDS011;41951;49.022;12.066;2023-02-11T07:14:34;56.10;;;27.38;;
56075;SDS011;41951;49.022;12.066;2023-02-11T07:17:00;52.05;;;26.65;;
56075;SDS011;41951;49.022;12.066;2023-02-11T07:19:27;56.25;;;27.70;;
56075;SDS011;41951;49.022;12.066;2023-02-11T07:21:53;51.58;;;28.38;;
56075;SDS011;41951;49.022;12.066;2023-02-11T07:24:19;56.42;;;27.50;;
56075;SDS011;41951;49.022;12.066;2023-02-11T07:26:44;55.22;;;26.77;;
56075;SDS011;41951;49.022;12.066;2023-02-11T07:29:10;58.58;;;28.48;;
56075;SDS011;41951;49.022;12.066;2023-02-11T07:31:35;56.35;;;28.27;;
56075;SDS011;41951;49.022;12.066;2023-02-11T07:34:01;56.60;;;28.23;;
56075;SDS011;41951;49.022;12.066;2023-02-11T07:36:27;56.05;;;28.45;;
56075;SDS011;41951;49.022;12.066;2023-02-11T07:38:54;55.10;;;28.73;;
56075;SDS011;41951;49.022;12.066;2023-02-11T07:41:21;56.78;;;27.08;;
56075;SDS011;41951;49.022;12.066;2023-02-11T07:43:47;53.13;;;26.55;;
56075;SDS011;41951;49.022;12.066;2023-02-11T07:48:43;55.07;;;26.50;;
56075;SDS011;41951;49.022;12.066;2023-02-11T07:51:16;56.15;;;28.67;;
56075;SDS011;41951;49.022;12.066;2023-02-11T07:53:43;51.08;;;26.35;;
56075;SDS011;41951;49.022;12.066;2023-02-11T07:56:10;56.80;;;27.55;;
56075;SDS011;41951;49.022;12.066;2023-02-11T07:58:36;54.58;;;27.77;;
56075;SDS011;41951;49.022;12.066;2023-02-11T08:01:03;54.42;;;26.65;;
56075;SDS011;41951;49.022;12.066;2023-02-11T08:03:30;56.92;;;27.40;;
56075;SDS011;41951;49.022;12.066;2023-02-11T08:05:56;56.67;;;28.10;;
56075;SDS011;41951;49.022;12.066;2023-02-11T08:08:21;55.20;;;27.23;;
56075;SDS011;41951;49.022;12.066;2023-02-11T08:10:49;53.38;;;25.92;;
56075;SDS011;41951;49.022;12.066;2023-02-11T08:13:15;57.88;;;27.52;;
56075;SDS011;41951;49.022;12.066;2023-02-11T08:15:40;54.30;;;26.80;;
56075;SDS011;41951;49.022;12.066;2023-02-11T08:18:06;56.25;;;26.67;;
56075;SDS011;41951;49.022;12.066;2023-02-11T08:20:32;63.90;;;27.35;;
56075;SDS011;41951;49.022;12.066;2023-02-11T08:22:58;56.47;;;26.05;;
56075;SDS011;41951;49.022;12.066;2023-02-11T08:25:23;54.53;;;27.45;;
56075;SDS011;41951;49.022;12.066;2023-02-11T08:27:49;58.33;;;28.00;;
56075;SDS011;41951;49.022;12.066;2023-02-11T08:30:14;51.65;;;25.48;;
56075;SDS011;41951;49.022;12.066;2023-02-11T08:32:40;61.55;;;29.45;;
56075;SDS011;41951;49.022;12.066;2023-02-11T08:35:06;54.15;;;26.95;;
56075;SDS011;41951;49.022;12.066;2023-02-11T08:37:32;50.05;;;26.13;;
56075;SDS011;41951;49.022;12.066;2023-02-11T08:39:58;51.30;;;28.13;;
56075;SDS011;41951;49.022;12.066;2023-02-11T08:42:24;61.17;;;28.45;;
56075;SDS011;41951;49.022;12.066;2023-02-11T08:44:49;59.67;;;27.42;;
56075;SDS011;41951;49.022;12.066;2023-02-11T08:47:15;55.20;;;27.48;;
56075;SDS011;41951;49.022;12.066;2023-02-11T08:49:40;58.65;;;26.42;;
56075;SDS011;41951;49.022;12.066;2023-02-11T08:52:06;53.78;;;27.58;;
56075;SDS011;41951;49.022;12.066;2023-02-11T08:54:32;51.63;;;28.33;;
56075;SDS011;41951;49.022;12.066;2023-02-11T08:56:58;53.72;;;27.02;;
56075;SDS011;41951;49.022;12.066;2023-02-11T08:59:26;52.40;;;27.05;;
56075;SDS011;41951;49.022;12.066;2023-02-11T09:01:51;53.20;;;27.67;;
56075;SDS011;41951;49.022;12.066;2023-02-11T09:04:17;54.33;;;27.50;;
56075;SDS011;41951;49.022;12.066;2023-02-11T09:06:43;52.70;;;26.77;;
56075;SDS011;41951;49.022;12.066;2023-02-11T09:09:10;51.03;;;26.95;;
56075;SDS011;41951;49.022;12.066;2023-02-11T09:14:06;49.80;;;25.40;;
56075;SDS011;41951;49.022;12.066;2023-02-11T09:16:32;54.92;;;26.20;;
56075;SDS011;41951;49.022;12.066;2023-02-11T09:19:00;49.55;;;25.75;;
56075;SDS011;41951;49.022;12.066;2023-02-11T09:21:28;51.30;;;26.75;;
56075;SDS011;41951;49.022;12.066;2023-02-11T09:23:54;49.08;;;25.33;;
56075;SDS011;41951;49.022;12.066;2023-02-11T09:26:27;48.60;;;25.70;;
56075;SDS011;41951;49.022;12.066;2023-02-11T09:28:55;55.08;;;27.67;;
56075;SDS011;41951;49.022;12.066;2023-02-11T09:31:21;48.88;;;25.13;;
56075;SDS011;41951;49.022;12.066;2023-02-11T09:33:49;48.35;;;25.20;;
56075;SDS011;41951;49.022;12.066;2023-02-11T09:36:22;61.05;;;26.48;;
56075;SDS011;41951;49.022;12.066;2023-02-11T09:38:49;55.55;;;26.17;;
56075;SDS011;41951;49.022;12.066;2023-02-11T09:43:56;50.95;;;26.30;;
56075;SDS011;41951;49.022;12.066;2023-02-11T09:46:26;55.42;;;27.85;;
56075;SDS011;41951;49.022;12.066;2023-02-11T09:49:00;53.35;;;27.45;;
56075;SDS011;41951;49.022;12.066;2023-02-11T09:54:11;55.35;;;27.35;;
56075;SDS011;41951;49.022;12.066;2023-02-11T09:56:42;51.08;;;26.30;;
56075;SDS011;41951;49.022;12.066;2023-02-11T09:59:12;58.60;;;29.25;;
56075;SDS011;41951;49.022;12.066;2023-02-11T10:04:29;48.53;;;26.35;;
56075;SDS011;41951;49.022;12.066;2023-02-11T10:07:29;53.35;;;27.95;;
56075;SDS011;41951;49.022;12.066;2023-02-11T10:10:29;55.63;;;26.42;;
56075;SDS011;41951;49.022;12.066;2023-02-11T10:13:05;51.05;;;25.80;;
56075;SDS011;41951;49.022;12.066;2023-02-11T10:15:58;50.80;;;26.60;;
56075;SDS011;41951;49.022;12.066;2023-02-11T10:18:45;53.15;;;25.98;;
56075;SDS011;41951;49.022;12.066;2023-02-11T10:21:28;58.65;;;27.40;;
56075;SDS011;41951;49.022;12.066;2023-02-11T10:24:01;50.85;;;26.45;;
56075;SDS011;41951;49.022;12.066;2023-02-11T10:26:33;53.67;;;27.50;;
56075;SDS011;41951;49.022;12.066;2023-02-11T10:29:03;55.22;;;27.40;;
56075;SDS011;41951;49.022;12.066;2023-02-11T10:34:09;48.55;;;26.20;;
56075;SDS011;41951;49.022;12.066;2023-02-11T10:36:38;52.22;;;26.88;;
56075;SDS011;41951;49.022;12.066;2023-02-11T10:39:12;52.50;;;26.65;;
56075;SDS011;41951;49.022;12.066;2023-02-11T10:41:42;50.58;;;26.17;;
56075;SDS011;41951;49.022;12.066;2023-02-11T10:46:48;44.13;;;23.48;;
56075;SDS011;41951;49.022;12.066;2023-02-11T10:54:54;48.70;;;22.75;;
56075;SDS011;41951;49.022;12.066;2023-02-11T10:57:42;42.83;;;20.55;;
56075;SDS011;41951;49.022;12.066;2023-02-11T11:02:51;43.17;;;21.85;;
56075;SDS011;41951;49.022;12.066;2023-02-11T11:05:20;42.33;;;21.20;;
56075;SDS011;41951;49.022;12.066;2023-02-11T11:07:53;38.33;;;21.35;;
56075;SDS011;41951;49.022;12.066;2023-02-11T11:15:47;38.78;;;20.92;;
56075;SDS011;41951;49.022;12.066;2023-02-11T11:18:31;44.53;;;21.42;;
56075;SDS011;41951;49.022;12.066;2023-02-11T11:20:58;45.60;;;22.95;;
56075;SDS011;41951;49.022;12.066;2023-02-11T11:23:49;40.08;;;21.42;;
56075;SDS011;41951;49.022;12.066;2023-02-11T11:26:17;40.97;;;22.05;;
56075;SDS011;41951;49.022;12.066;2023-02-11T11:31:16;41.75;;;21.65;;
56075;SDS011;41951;49.022;12.066;2023-02-11T11:33:47;39.78;;;21.17;;
56075;SDS011;41951;49.022;12.066;2023-02-11T11:36:21;39.17;;;20.40;;
56075;SDS011;41951;49.022;12.066;2023-02-11T11:38:55;39.78;;;20.90;;
56075;SDS011;41951;49.022;12.066;2023-02-11T11:41:31;37.88;;;20.88;;
56075;SDS011;41951;49.022;12.066;2023-02-11T11:46:26;45.28;;;23.83;;
56075;SDS011;41951;49.022;12.066;2023-02-11T11:52:10;46.67;;;25.30;;
56075;SDS011;41951;49.022;12.066;2023-02-11T11:54:45;49.05;;;26.40;;
56075;SDS011;41951;49.022;12.066;2023-02-11T11:57:19;48.05;;;25.63;;
56075;SDS011;41951;49.022;12.066;2023-02-11T11:59:49;53.30;;;27.50;;
56075;SDS011;41951;49.022;12.066;2023-02-11T12:05:13;51.05;;;25.80;;
56075;SDS011;41951;49.022;12.066;2023-02-11T12:07:59;50.30;;;27.10;;
56075;SDS011;41951;49.022;12.066;2023-02-11T12:11:05;52.67;;;28.67;;
56075;SDS011;41951;49.022;12.066;2023-02-11T12:34:50;52.33;;;28.30;;
56075;SDS011;41951;49.022;12.066;2023-02-11T12:40:45;53.35;;;27.20;;
56075;SDS011;41951;49.022;12.066;2023-02-11T12:43:36;48.60;;;25.73;;
56075;SDS011;41951;49.022;12.066;2023-02-11T12:51:41;49.60;;;25.25;;
56075;SDS011;41951;49.022;12.066;2023-02-11T12:57:02;48.58;;;25.45;;
56075;SDS011;41951;49.022;12.066;2023-02-11T13:02:29;54.63;;;28.27;;
56075;SDS011;41951;49.022;12.066;2023-02-11T13:05:47;37.30;;;20.20;;
56075;SDS011;41951;49.022;12.066;2023-02-11T13:08:17;53.85;;;28.63;;
56075;SDS011;41951;49.022;12.066;2023-02-11T13:11:00;49.22;;;27.20;;
56075;SDS011;41951;49.022;12.066;2023-02-11T13:13:54;51.42;;;27.80;;
56075;SDS011;41951;49.022;12.066;2023-02-11T13:16:30;50.47;;;27.40;;
56075;SDS011;41951;49.022;12.066;2023-02-11T13:21:49;50.58;;;27.55;;
56075;SDS011;41951;49.022;12.066;2023-02-11T13:24:28;55.38;;;28.23;;
56075;SDS011;41951;49.022;12.066;2023-02-11T13:27:08;49.10;;;25.65;;
56075;SDS011;41951;49.022;12.066;2023-02-11T13:32:20;49.42;;;26.85;;
56075;SDS011;41951;49.022;12.066;2023-02-11T13:40:02;52.13;;;28.85;;
56075;SDS011;41951;49.022;12.066;2023-02-11T13:44:58;50.47;;;25.80;;
56075;SDS011;41951;49.022;12.066;2023-02-11T13:47:26;53.90;;;29.00;;
56075;SDS011;41951;49.022;12.066;2023-02-11T13:49:55;51.97;;;27.40;;
56075;SDS011;41951;49.022;12.066;2023-02-11T13:52:24;49.42;;;28.00;;
56075;SDS011;41951;49.022;12.066;2023-02-11T13:54:57;54.78;;;28.25;;
56075;SDS011;41951;49.022;12.066;2023-02-11T13:57:34;50.17;;;28.63;;
56075;SDS011;41951;49.022;12.066;2023-02-11T14:00:05;54.25;;;27.75;;
56075;SDS011;41951;49.022;12.066;2023-02-11T14:02:36;54.72;;;28.63;;
56075;SDS011;41951;49.022;12.066;2023-02-11T14:05:24;50.75;;;25.73;;
56075;SDS011;41951;49.022;12.066;2023-02-11T14:08:14;53.50;;;26.60;;
56075;SDS011;41951;49.022;12.066;2023-02-11T14:16:26;47.70;;;26.23;;
56075;SDS011;41951;49.022;12.066;2023-02-11T14:23:52;50.85;;;27.70;;
56075;SDS011;41951;49.022;12.066;2023-02-11T14:29:25;53.00;;;28.55;;
56075;SDS011;41951;49.022;12.066;2023-02-11T14:34:37;50.20;;;26.30;;
56075;SDS011;41951;49.022;12.066;2023-02-11T14:37:21;51.67;;;27.75;;
56075;SDS011;41951;49.022;12.066;2023-02-11T14:42:34;53.80;;;27.73;;
56075;SDS011;41951;49.022;12.066;2023-02-11T14:45:06;50.00;;;26.90;;
56075;SDS011;41951;49.022;12.066;2023-02-11T14:47:50;47.42;;;26.55;;
56075;SDS011;41951;49.022;12.066;2023-02-11T14:50:30;48.72;;;27.50;;
56075;SDS011;41951;49.022;12.066;2023-02-11T14:53:09;45.75;;;26.73;;
56075;SDS011;41951;49.022;12.066;2023-02-11T14:55:40;54.35;;;28.80;;
56075;SDS011;41951;49.022;12.066;2023-02-11T14:58:12;48.47;;;27.40;;
56075;SDS011;41951;49.022;12.066;2023-02-11T15:00:51;55.17;;;29.90;;
56075;SDS011;41951;49.022;12.066;2023-02-11T15:03:24;51.45;;;28.42;;
56075;SDS011;41951;49.022;12.066;2023-02-11T15:05:57;53.08;;;29.35;;
56075;SDS011;41951;49.022;12.066;2023-02-11T15:08:28;52.42;;;28.10;;
56075;SDS011;41951;49.022;12.066;2023-02-11T15:10:55;48.25;;;26.88;;
56075;SDS011;41951;49.022;12.066;2023-02-11T15:13:22;49.13;;;27.05;;
56075;SDS011;41951;49.022;12.066;2023-02-11T15:15:56;52.95;;;28.60;;
56075;SDS011;41951;49.022;12.066;2023-02-11T15:18:37;61.45;;;31.25;;
56075;SDS011;41951;49.022;12.066;2023-02-11T15:21:06;56.85;;;29.98;;
56075;SDS011;41951;49.022;12.066;2023-02-11T15:23:32;46.58;;;27.55;;
56075;SDS011;41951;49.022;12.066;2023-02-11T15:25:58;52.47;;;27.77;;
56075;SDS011;41951;49.022;12.066;2023-02-11T15:28:29;50.90;;;26.98;;
56075;SDS011;41951;49.022;12.066;2023-02-11T15:30:59;50.03;;;26.90;;
56075;SDS011;41951;49.022;12.066;2023-02-11T15:33:25;48.88;;;26.90;;
56075;SDS011;41951;49.022;12.066;2023-02-11T15:35:53;51.10;;;28.00;;
56075;SDS011;41951;49.022;12.066;2023-02-11T15:38:20;52.78;;;27.58;;
56075;SDS011;41951;49.022;12.066;2023-02-11T15:40:53;48.78;;;27.95;;
56075;SDS011;41951;49.022;12.066;2023-02-11T15:43:39;50.38;;;26.98;;
56075;SDS011;41951;49.022;12.066;2023-02-11T15:46:09;51.25;;;26.95;;
56075;SDS011;41951;49.022;12.066;2023-02-11T15:48:48;47.53;;;26.33;;
56075;SDS011;41951;49.022;12.066;2023-02-11T15:51:19;50.20;;;25.45;;
56075;SDS011;41951;49.022;12.066;2023-02-11T15:53:57;47.08;;;26.45;;
56075;SDS011;41951;49.022;12.066;2023-02-11T15:56:40;49.83;;;28.67;;
56075;SDS011;41951;49.022;12.066;2023-02-11T15:59:09;53.05;;;26.45;;
56075;SDS011;41951;49.022;12.066;2023-02-11T16:01:38;51.85;;;28.38;;
56075;SDS011;41951;49.022;12.066;2023-02-11T16:04:04;53.20;;;27.20;;
56075;SDS011;41951;49.022;12.066;2023-02-11T16:06:37;52.95;;;29.65;;
56075;SDS011;41951;49.022;12.066;2023-02-11T16:09:18;52.40;;;28.48;;
56075;SDS011;41951;49.022;12.066;2023-02-11T16:16:51;48.15;;;28.15;;
56075;SDS011;41951;49.022;12.066;2023-02-11T16:19:20;57.20;;;28.23;;
56075;SDS011;41951;49.022;12.066;2023-02-11T16:21:47;55.95;;;31.92;;
56075;SDS011;41951;49.022;12.066;2023-02-11T16:24:18;58.13;;;32.42;;
56075;SDS011;41951;49.022;12.066;2023-02-11T16:26:50;56.58;;;29.92;;
56075;SDS011;41951;49.022;12.066;2023-02-11T16:29:22;52.08;;;30.48;;
56075;SDS011;41951;49.022;12.066;2023-02-11T16:31:53;57.17;;;30.50;;
56075;SDS011;41951;49.022;12.066;2023-02-11T16:34:49;52.63;;;29.05;;
56075;SDS011;41951;49.022;12.066;2023-02-11T16:37:15;56.10;;;29.52;;
56075;SDS011;41951;49.022;12.066;2023-02-11T16:39:41;61.88;;;32.95;;
56075;SDS011;41951;49.022;12.066;2023-02-11T16:42:06;59.92;;;31.20;;
56075;SDS011;41951;49.022;12.066;2023-02-11T16:44:32;55.28;;;30.58;;
56075;SDS011;41951;49.022;12.066;2023-02-11T16:46:58;54.90;;;29.38;;
56075;SDS011;41951;49.022;12.066;2023-02-11T16:49:31;58.38;;;29.75;;
56075;SDS011;41951;49.022;12.066;2023-02-11T16:52:04;56.78;;;29.90;;
56075;SDS011;41951;49.022;12.066;2023-02-11T16:54:31;54.53;;;29.55;;
56075;SDS011;41951;49.022;12.066;2023-02-11T16:56:57;57.05;;;29.67;;